Time;durP1;ratioP1;P1;durP2;ratioP2;P2;SDS_P1;SDS_P2;PMS_P1;PMS_P2;Temp;Humidity;BMP_temperature;BMP_pressure;BME280_temperature;BME280_humidity;BME280_pressure;Samples;Min_cycle;Max_cycle;Signal;HPM_P1;HPM_P2
2022/12/24 15:50:47;;;;;;;34.60;9.53;;;8.40;6.40;;;;;;5010060;23;20487;-52
2022/12/24 15:53:27;;;;;;;46.83;9.77;;;8.40;1.00;;;;;;4909184;29;20462;-52
2022/12/24 15:56:05;;;;;;;40.57;8.83;;;8.50;1.00;;;;;;4933807;29;20489;-52
2022/12/24 15:58:43;;;;;;;26.17;8.83;;;8.50;1.00;;;;;;4930352;29;20473;-52
2022/12/24 16:01:12;;;;;;;36.47;9.30;;;8.50;1.00;;;;;;4929580;29;20508;-52
2022/12/24 16:03:39;;;;;;;35.97;8.30;;;8.50;1.00;;;;;;4919764;29;20495;-53
2022/12/24 16:06:12;;;;;;;39.23;9.50;;;8.50;1.00;;;;;;4929209;29;20525;-52
2022/12/24 16:08:42;;;;;;;28.13;10.13;;;8.50;1.00;;;;;;4930579;29;20454;-52
2022/12/24 16:11:17;;;;;;;37.57;10.67;;;8.50;1.00;;;;;;4929319;29;20529;-52
2022/12/24 16:14:03;;;;;;;44.07;11.10;;;8.50;1.00;;;;;;4925900;29;20452;-52
2022/12/24 16:16:41;;;;;;;38.90;9.70;;;8.50;1.00;;;;;;4926093;29;20460;-53
2022/12/24 16:19:15;;;;;;;31.20;9.90;;;8.40;1.00;;;;;;4930996;29;20449;-52
2022/12/24 16:21:41;;;;;;;34.37;10.17;;;8.40;1.00;;;;;;4926291;29;20437;-52
2022/12/24 16:24:21;;;;;;;31.70;10.60;;;8.30;1.00;;;;;;4926034;29;20558;-53
2022/12/24 16:26:47;;;;;;;27.67;9.30;;;8.30;7.80;;;;;;4923309;29;20454;-52
2022/12/24 16:29:14;;;;;;;26.83;10.40;;;8.30;16.10;;;;;;4928967;29;20944;-52
2022/12/24 16:31:57;;;;;;;32.80;10.90;;;8.30;24.50;;;;;;4930806;29;20565;-52
2022/12/24 16:34:25;;;;;;;30.40;9.63;;;8.40;34.20;;;;;;4932525;29;20461;-53
2022/12/24 16:36:51;;;;;;;37.50;10.80;;;8.40;46.10;;;;;;4927573;29;20470;-53
2022/12/24 16:39:23;;;;;;;43.73;11.30;;;8.30;49.00;;;;;;4929003;29;20447;-52
2022/12/24 16:44:38;;;;;;;32.90;10.40;;;8.30;61.20;;;;;;4933061;29;20806;-52
2022/12/24 16:47:09;;;;;;;37.63;11.83;;;8.30;73.20;;;;;;4931861;29;21146;-52
2022/12/24 16:49:37;;;;;;;29.40;10.20;;;8.40;89.00;;;;;;4935503;29;20485;-52
2022/12/24 16:52:07;;;;;;;31.20;10.07;;;8.40;92.80;;;;;;4922587;29;20779;-52
2022/12/24 16:54:33;;;;;;;28.97;10.60;;;8.40;96.70;;;;;;4930903;29;20916;-52
2022/12/24 16:56:58;;;;;;;25.60;10.00;;;8.40;98.50;;;;;;4932123;29;20473;-52
2022/12/24 16:59:24;;;;;;;30.63;11.60;;;8.40;99.90;;;;;;4936392;29;20810;-52
2022/12/24 17:01:50;;;;;;;34.53;9.83;;;8.40;99.90;;;;;;4919252;29;20639;-51
2022/12/24 17:04:17;;;;;;;27.50;10.00;;;8.50;99.90;;;;;;4936988;29;20221;-52
2022/12/24 17:06:43;;;;;;;26.73;10.63;;;8.40;99.90;;;;;;4924153;29;20947;-52
2022/12/24 17:09:10;;;;;;;25.10;9.30;;;8.50;99.90;;;;;;4937267;29;20963;-52
2022/12/24 17:11:37;;;;;;;22.17;8.90;;;8.50;99.90;;;;;;4920361;29;20597;-52
2022/12/24 17:14:03;;;;;;;32.73;9.77;;;8.40;99.90;;;;;;4937146;29;20811;-52
2022/12/24 17:16:29;;;;;;;28.27;7.30;;;8.50;99.90;;;;;;4937776;29;20437;-52
2022/12/24 17:18:54;;;;;;;18.70;7.60;;;8.50;99.90;;;;;;4919800;29;20481;-52
2022/12/24 17:21:20;;;;;;;20.43;8.07;;;8.40;99.90;;;;;;4936797;29;20194;-52
2022/12/24 17:23:46;;;;;;;33.00;7.77;;;8.40;99.90;;;;;;4936776;29;20197;-52
2022/12/24 17:26:13;;;;;;;29.00;7.97;;;8.40;99.90;;;;;;4936670;29;20174;-52
2022/12/24 17:28:39;;;;;;;33.07;8.37;;;8.40;99.90;;;;;;4935987;29;20213;-52
2022/12/24 17:31:09;;;;;;;29.83;7.80;;;8.40;99.90;;;;;;4934078;29;20469;-52
2022/12/24 17:33:34;;;;;;;29.83;7.90;;;8.50;99.90;;;;;;4932004;29;20810;-52
2022/12/24 17:36:01;;;;;;;28.60;7.77;;;8.50;99.90;;;;;;4933277;29;20461;-52
2022/12/24 17:38:26;;;;;;;24.97;7.77;;;8.50;99.90;;;;;;4935842;29;20218;-52
2022/12/24 17:40:58;;;;;;;28.10;8.20;;;8.50;99.90;;;;;;4917753;29;20502;-52
2022/12/24 17:43:24;;;;;;;24.27;9.30;;;8.50;96.50;;;;;;4926365;29;20195;-52
2022/12/24 17:45:49;;;;;;;29.37;7.67;;;8.50;93.60;;;;;;4929776;29;20457;-52
2022/12/24 17:48:15;;;;;;;22.43;9.00;;;8.50;89.10;;;;;;4928182;29;20716;-52
2022/12/24 17:50:40;;;;;;;35.23;8.50;;;8.50;85.90;;;;;;4926175;29;20547;-52
2022/12/24 17:53:06;;;;;;;31.07;10.50;;;8.50;83.00;;;;;;4932915;29;20274;-52
2022/12/24 17:55:32;;;;;;;25.13;8.33;;;8.50;79.30;;;;;;4930826;29;20198;-52
2022/12/24 17:57:58;;;;;;;22.90;9.17;;;8.50;76.70;;;;;;4928274;29;20314;-52
2022/12/24 18:00:23;;;;;;;40.13;9.13;;;8.50;77.40;;;;;;4922491;29;20206;-52
2022/12/24 18:02:49;;;;;;;30.47;8.97;;;8.50;77.50;;;;;;4924371;29;20449;-52
2022/12/24 18:05:15;;;;;;;33.43;8.70;;;8.50;73.90;;;;;;4931420;29;20659;-52
2022/12/24 18:07:40;;;;;;;37.43;8.47;;;8.50;63.50;;;;;;4929370;29;20666;-52
2022/12/24 18:10:06;;;;;;;27.03;7.97;;;8.50;57.70;;;;;;4931363;29;20633;-52
2022/12/24 18:12:32;;;;;;;33.27;10.10;;;8.40;56.10;;;;;;4934748;29;20233;-52
2022/12/24 18:14:58;;;;;;;23.87;8.30;;;8.40;58.80;;;;;;4933560;29;20449;-52
2022/12/24 18:17:24;;;;;;;27.40;8.90;;;8.50;61.90;;;;;;4933029;29;20225;-55
2022/12/24 18:19:49;;;;;;;30.33;9.00;;;8.50;55.10;;;;;;4914945;29;20462;-53
2022/12/24 18:22:15;;;;;;;29.20;8.60;;;8.50;46.80;;;;;;4933294;29;20198;-52
2022/12/24 18:24:41;;;;;;;24.67;8.73;;;8.50;43.50;;;;;;4935522;29;20206;-52
2022/12/24 18:27:06;;;;;;;27.70;8.10;;;8.40;38.60;;;;;;4933993;29;20202;-55
2022/12/24 18:29:32;;;;;;;27.80;7.67;;;8.50;35.20;;;;;;4933228;29;20269;-52
2022/12/24 18:31:57;;;;;;;35.20;8.13;;;8.40;29.00;;;;;;4933665;29;20213;-52
2022/12/24 18:34:23;;;;;;;22.47;7.30;;;8.40;26.20;;;;;;4930872;29;20233;-52
2022/12/24 18:36:48;;;;;;;21.60;6.73;;;8.40;24.30;;;;;;4900797;29;20194;-52
2022/12/24 18:39:14;;;;;;;31.87;7.10;;;8.40;20.30;;;;;;4930524;29;20189;-52
2022/12/24 18:41:40;;;;;;;31.03;7.17;;;8.30;14.90;;;;;;4933482;29;20225;-52
2022/12/24 18:44:05;;;;;;;30.83;7.73;;;8.30;11.90;;;;;;4928365;29;20186;-52
2022/12/24 18:46:32;;;;;;;21.60;6.40;;;8.20;2.40;;;;;;4926510;29;20277;-52
2022/12/24 18:48:59;;;;;;;32.03;7.80;;;8.20;1.00;;;;;;4921455;29;20249;-52
2022/12/24 18:51:29;;;;;;;25.27;6.33;;;8.20;1.00;;;;;;4922686;29;20580;-53
2022/12/24 18:53:55;;;;;;;21.03;6.60;;;8.30;1.00;;;;;;4926126;29;20447;-53
2022/12/24 18:56:22;;;;;;;26.40;6.80;;;8.20;1.00;;;;;;4927183;29;20962;-53
2022/12/24 18:58:52;;;;;;;28.00;7.27;;;8.20;1.00;;;;;;4928956;29;21148;-53
2022/12/24 19:01:26;;;;;;;21.53;6.17;;;8.20;1.00;;;;;;4909613;29;20454;-52
2022/12/24 19:03:52;;;;;;;24.73;6.40;;;8.20;1.00;;;;;;4920692;29;20472;-53
2022/12/24 19:06:18;;;;;;;22.27;6.90;;;8.10;1.00;;;;;;4925619;29;20443;-54
2022/12/24 19:08:44;;;;;;;20.77;6.10;;;8.10;1.00;;;;;;4928052;29;20209;-52
2022/12/24 19:11:09;;;;;;;29.37;7.43;;;8.10;1.00;;;;;;4929910;28;20967;-52
2022/12/24 19:13:35;;;;;;;22.10;6.43;;;8.10;1.00;;;;;;4933647;29;20633;-54
2022/12/24 19:16:04;;;;;;;31.30;6.43;;;8.00;1.00;;;;;;4928930;29;20292;-53
2022/12/24 19:18:30;;;;;;;24.83;6.40;;;8.00;1.00;;;;;;4930769;29;20273;-52
2022/12/24 19:20:56;;;;;;;31.43;6.17;;;8.00;1.00;;;;;;4933625;28;20989;-52
2022/12/24 19:23:22;;;;;;;20.77;5.90;;;7.90;1.00;;;;;;4929733;29;20190;-52
2022/12/24 19:25:48;;;;;;;22.73;5.67;;;7.90;1.00;;;;;;4927880;29;20457;-53
2022/12/24 19:28:14;;;;;;;33.17;6.53;;;7.80;1.00;;;;;;4930336;29;20205;-52
2022/12/24 19:30:43;;;;;;;21.50;5.30;;;7.70;1.00;;;;;;4934360;29;20454;-52
2022/12/24 19:33:09;;;;;;;24.27;6.33;;;7.60;1.00;;;;;;4938542;29;20210;-54
2022/12/24 19:35:35;;;;;;;22.40;6.07;;;7.60;1.00;;;;;;4922683;29;20954;-52
2022/12/24 19:38:01;;;;;;;24.30;5.97;;;7.60;1.00;;;;;;4933833;29;20685;-52
2022/12/24 19:40:28;;;;;;;26.93;5.50;;;7.60;1.00;;;;;;4939054;29;20474;-52
2022/12/24 19:42:53;;;;;;;23.13;6.37;;;7.50;1.00;;;;;;4926698;29;20808;-52
2022/12/24 19:45:19;;;;;;;25.20;6.50;;;7.40;1.00;;;;;;4928610;29;20206;-52
2022/12/24 19:47:47;;;;;;;23.90;7.10;;;7.50;1.00;;;;;;4931965;29;20721;-53
2022/12/24 19:50:14;;;;;;;33.70;6.67;;;7.50;1.00;;;;;;4930504;29;20481;-52
2022/12/24 19:52:39;;;;;;;20.07;6.40;;;7.60;6.30;;;;;;4935601;29;20513;-52
2022/12/24 19:55:06;;;;;;;29.27;7.10;;;7.60;9.40;;;;;;4925311;29;20962;-52
2022/12/24 19:57:31;;;;;;;31.37;8.57;;;7.70;11.00;;;;;;4936899;29;20213;-52
2022/12/24 19:59:57;;;;;;;21.43;6.50;;;7.70;9.80;;;;;;4927395;29;20446;-54
2022/12/24 20:02:22;;;;;;;22.50;6.33;;;7.60;8.10;;;;;;4922635;29;20194;-54
2022/12/24 20:04:49;;;;;;;25.10;7.80;;;7.60;9.80;;;;;;4925901;29;20281;-55
2022/12/24 20:07:15;;;;;;;23.30;6.60;;;7.70;11.50;;;;;;4930912;29;20190;-52
2022/12/24 20:09:41;;;;;;;23.70;6.60;;;7.60;9.80;;;;;;4930263;29;20641;-52
2022/12/24 20:12:07;;;;;;;39.17;6.77;;;7.70;12.70;;;;;;4925304;29;20187;-52
2022/12/24 20:14:32;;;;;;;29.07;6.50;;;7.70;13.70;;;;;;4924879;29;20277;-52
2022/12/24 20:16:58;;;;;;;21.33;6.10;;;7.70;14.40;;;;;;4928463;29;20477;-52
2022/12/24 20:19:23;;;;;;;28.07;7.27;;;7.60;12.60;;;;;;4909112;29;20643;-52
2022/12/24 20:21:49;;;;;;;22.80;7.07;;;7.60;9.40;;;;;;4923331;29;20596;-54
2022/12/24 20:24:15;;;;;;;31.10;7.00;;;7.60;5.50;;;;;;4927705;29;20285;-52
2022/12/24 20:26:40;;;;;;;29.20;6.90;;;7.50;1.00;;;;;;4932819;29;20187;-52
2022/12/24 20:29:08;;;;;;;22.87;7.00;;;7.50;1.00;;;;;;4929459;29;20202;-52
2022/12/24 20:31:34;;;;;;;29.60;8.07;;;7.50;1.00;;;;;;4934130;29;20186;-52
2022/12/24 20:34:02;;;;;;;20.47;6.53;;;7.50;1.00;;;;;;4933470;29;20441;-52
2022/12/24 20:36:29;;;;;;;21.33;6.50;;;7.50;1.00;;;;;;4930753;29;20910;-52
2022/12/24 20:38:56;;;;;;;33.23;6.87;;;7.40;1.00;;;;;;4934735;29;20518;-52
2022/12/24 20:41:24;;;;;;;25.80;6.70;;;7.40;1.00;;;;;;4932301;29;20429;-52
2022/12/24 20:43:50;;;;;;;18.43;6.90;;;7.40;1.00;;;;;;4934700;29;20884;-52
2022/12/24 20:46:17;;;;;;;26.53;7.53;;;7.40;1.00;;;;;;4936184;29;20492;-52
2022/12/24 20:48:42;;;;;;;31.93;7.07;;;7.30;1.00;;;;;;4915661;29;21302;-52
2022/12/24 20:51:12;;;;;;;26.87;7.13;;;7.40;1.00;;;;;;4932130;29;20594;-52
2022/12/24 20:53:39;;;;;;;29.50;7.30;;;7.40;1.00;;;;;;4925390;29;20233;-53
2022/12/24 20:56:05;;;;;;;32.23;8.20;;;7.30;1.00;;;;;;4937120;29;20452;-53
2022/12/24 20:58:30;;;;;;;24.43;7.70;;;7.40;1.00;;;;;;4934269;29;20470;-52
2022/12/24 21:00:56;;;;;;;28.10;8.37;;;7.30;1.00;;;;;;4935456;29;20664;-52
2022/12/24 21:03:22;;;;;;;28.97;8.17;;;7.30;1.00;;;;;;4930567;29;20209;-52
2022/12/24 21:05:47;;;;;;;22.90;7.27;;;7.20;1.00;;;;;;4933823;29;20230;-52
2022/12/24 21:08:13;;;;;;;28.60;7.50;;;7.20;1.00;;;;;;4933029;29;20197;-52
2022/12/24 21:10:39;;;;;;;29.30;7.93;;;7.30;1.00;;;;;;4946422;29;20190;-52
2022/12/24 21:13:06;;;;;;;39.00;8.07;;;7.30;1.00;;;;;;4933760;29;20936;-53
2022/12/24 21:15:38;;;;;;;25.07;8.07;;;7.30;1.00;;;;;;4933527;29;20437;-52
2022/12/24 21:18:10;;;;;;;20.50;7.50;;;7.30;1.00;;;;;;4932280;29;20497;-52
2022/12/24 21:20:38;;;;;;;20.63;7.70;;;7.30;1.00;;;;;;4923997;29;20438;-52
2022/12/24 21:23:04;;;;;;;28.60;7.70;;;7.20;1.00;;;;;;4922326;29;20435;-52
2022/12/24 21:25:29;;;;;;;22.00;7.43;;;7.10;1.00;;;;;;4919525;29;20504;-52
2022/12/24 21:27:55;;;;;;;29.27;7.63;;;7.10;1.00;;;;;;4901459;29;20202;-56
2022/12/24 21:30:21;;;;;;;27.00;7.80;;;7.10;1.00;;;;;;4920633;29;20222;-58
2022/12/24 21:32:47;;;;;;;29.90;6.73;;;7.10;1.00;;;;;;4920917;29;20194;-57
2022/12/24 21:35:13;;;;;;;28.27;7.00;;;7.10;1.00;;;;;;4933630;29;20439;-57
2022/12/24 21:37:40;;;;;;;25.27;7.90;;;7.00;1.00;;;;;;4935182;29;20476;-57
2022/12/24 21:40:07;;;;;;;37.87;8.50;;;7.00;1.00;;;;;;4935281;29;20442;-57
2022/12/24 21:42:34;;;;;;;25.60;7.53;;;6.90;1.00;;;;;;4932435;29;20442;-58
2022/12/24 21:45:00;;;;;;;29.70;7.33;;;7.00;1.00;;;;;;4934397;29;20460;-57
2022/12/24 21:47:26;;;;;;;23.33;6.90;;;6.90;1.00;;;;;;4930152;29;20441;-57
2022/12/24 21:52:36;;;;;;;30.37;8.13;;;6.90;1.00;;;;;;4933793;29;20437;-56
2022/12/24 21:55:02;;;;;;;26.07;7.70;;;6.90;1.00;;;;;;4928536;29;20916;-57
2022/12/24 22:00:25;;;;;;;34.67;8.03;;;6.90;1.00;;;;;;4912433;29;20463;-57
2022/12/24 22:02:53;;;;;;;35.20;8.37;;;6.80;1.00;;;;;;4924611;29;20842;-57
2022/12/24 22:05:19;;;;;;;29.30;7.80;;;6.70;1.00;;;;;;4932634;29;20851;-57
2022/12/24 22:13:14;;;;;;;23.40;8.20;;;6.70;1.00;;;;;;4928949;29;20796;-58
2022/12/24 22:15:45;;;;;;;25.07;7.33;;;6.70;1.00;;;;;;4935061;29;20443;-57
2022/12/24 22:18:12;;;;;;;23.20;7.90;;;6.70;1.00;;;;;;4936277;29;20214;-57
2022/12/24 22:20:38;;;;;;;29.90;8.57;;;6.70;1.00;;;;;;4930993;29;20434;-57
2022/12/24 22:23:04;;;;;;;29.50;7.90;;;6.70;1.00;;;;;;4930048;29;20438;-57
2022/12/24 22:25:31;;;;;;;22.67;8.37;;;6.70;1.00;;;;;;4915851;29;20452;-57
2022/12/24 22:27:57;;;;;;;33.60;9.37;;;6.60;1.00;;;;;;4931264;29;20205;-57
2022/12/24 22:30:22;;;;;;;30.67;8.80;;;6.60;1.00;;;;;;4929645;29;20434;-57
2022/12/24 22:32:48;;;;;;;33.73;8.60;;;6.60;1.00;;;;;;4924297;29;20257;-57
2022/12/24 22:35:14;;;;;;;32.10;9.97;;;6.60;1.00;;;;;;4917230;29;20191;-57
2022/12/24 22:37:40;;;;;;;22.40;9.70;;;6.60;1.00;;;;;;4923304;29;20205;-57
2022/12/24 22:40:07;;;;;;;33.43;10.20;;;6.60;1.00;;;;;;4932701;29;20891;-57
2022/12/24 22:42:33;;;;;;;34.70;9.73;;;6.60;1.00;;;;;;4912986;29;20190;-57
2022/12/24 22:44:59;;;;;;;33.87;10.17;;;6.50;1.00;;;;;;4933192;29;20442;-57
2022/12/24 22:47:25;;;;;;;29.77;8.90;;;6.50;1.00;;;;;;4928464;29;20505;-57
2022/12/24 22:49:50;;;;;;;33.50;9.77;;;6.50;1.00;;;;;;4927133;29;20490;-57
2022/12/24 22:52:16;;;;;;;33.33;9.77;;;6.50;1.00;;;;;;4916167;29;20286;-57
2022/12/24 22:54:41;;;;;;;32.93;10.10;;;6.60;1.00;;;;;;4931132;29;20503;-57
2022/12/24 22:57:07;;;;;;;28.53;9.17;;;6.60;1.00;;;;;;4925792;29;20269;-57
2022/12/24 22:59:33;;;;;;;45.03;11.73;;;6.60;1.00;;;;;;4932658;29;20193;-57
2022/12/24 23:01:58;;;;;;;24.83;9.33;;;6.50;1.00;;;;;;4928472;29;20194;-57
2022/12/24 23:04:24;;;;;;;26.93;9.87;;;6.50;1.00;;;;;;4926252;29;20200;-57
2022/12/24 23:06:50;;;;;;;44.90;9.47;;;6.50;1.00;;;;;;4910883;29;20713;-57
2022/12/24 23:09:17;;;;;;;38.83;10.53;;;6.50;1.00;;;;;;4934349;29;20183;-57
2022/12/24 23:11:44;;;;;;;33.47;10.10;;;6.60;1.00;;;;;;4930250;29;20240;-57
2022/12/24 23:17:03;;;;;;;28.10;9.03;;;6.50;1.00;;;;;;4921716;29;20518;-57
2022/12/24 23:19:30;;;;;;;29.40;9.47;;;6.40;1.00;;;;;;4920904;29;20877;-62
2022/12/24 23:21:56;;;;;;;25.57;10.07;;;6.30;1.00;;;;;;4926090;29;20443;-64
2022/12/24 23:24:22;;;;;;;29.23;10.20;;;6.20;1.00;;;;;;4917395;29;20457;-59
2022/12/24 23:26:47;;;;;;;32.30;9.80;;;6.10;1.00;;;;;;4930690;29;20187;-58
2022/12/24 23:29:13;;;;;;;26.00;9.93;;;6.10;1.00;;;;;;4927377;29;20202;-58
2022/12/24 23:31:38;;;;;;;26.10;10.10;;;6.10;1.00;;;;;;4929760;29;20226;-58
2022/12/24 23:34:04;;;;;;;32.00;10.23;;;6.10;1.00;;;;;;4927557;29;20198;-58
2022/12/24 23:36:29;;;;;;;27.23;10.87;;;6.10;1.00;;;;;;4929370;29;20189;-59
2022/12/24 23:38:56;;;;;;;28.33;9.47;;;6.00;1.00;;;;;;4927924;29;20288;-58
2022/12/24 23:41:22;;;;;;;31.37;11.07;;;6.00;1.00;;;;;;4932464;29;20182;-58
2022/12/24 23:43:47;;;;;;;33.90;10.80;;;6.00;1.00;;;;;;4928818;29;20448;-58
2022/12/24 23:46:15;;;;;;;42.07;9.93;;;6.00;1.00;;;;;;4919218;29;20656;-59
2022/12/24 23:48:41;;;;;;;39.23;11.10;;;5.90;1.00;;;;;;4927985;29;20234;-59
2022/12/24 23:51:13;;;;;;;37.97;9.83;;;5.90;1.00;;;;;;4918025;29;20462;-59
2022/12/24 23:53:39;;;;;;;34.53;9.53;;;5.80;1.00;;;;;;4929845;29;20194;-59
2022/12/24 23:56:06;;;;;;;37.43;11.77;;;5.80;1.00;;;;;;4931202;29;20479;-59
2022/12/24 23:58:31;;;;;;;28.33;9.50;;;5.70;1.00;;;;;;4926033;29;20218;-59
